Time;durP1;ratioP1;P1;durP2;ratioP2;P2;SDS_P1;SDS_P2;PMS_P1;PMS_P2;Temp;Humidity;BMP_temperature;BMP_pressure;BME280_temperature;BME280_humidity;BME280_pressure;Samples;Min_cycle;Max_cycle;Signal;HPM_P1;HPM_P2
2023/10/16 00:02:13;;;;;;;1.70;0.70;;;;;;;-128.00;-1.00;-1.00;100457;1283;1003269;-35
2023/10/16 00:04:43;;;;;;;;;;;;;;;-128.00;-1.00;-1.00;100506;1282;1003530;-33
2023/10/16 00:07:33;;;;;;;2.70;0.60;;;;;;;-128.00;-1.00;-1.00;100448;1281;1046055;-33
2023/10/16 00:10:10;;;;;;;1.40;0.60;;;;;;;-128.00;-1.00;-1.00;100421;1280;1062955;-35
2023/10/16 00:12:36;;;;;;;2.30;0.70;;;;;;;-128.00;-1.00;-1.00;100370;1282;1056022;-34
2023/10/16 00:15:03;;;;;;;3.50;1.00;;;;;;;-128.00;-1.00;-1.00;100393;1283;1004907;-34
2023/10/16 00:17:31;;;;;;;1.60;0.60;;;;;;;-128.00;-1.00;-1.00;100399;1283;1003054;-32
2023/10/16 00:19:56;;;;;;;5.60;0.80;;;;;;;-128.00;-1.00;-1.00;100414;1283;1002814;-31
2023/10/16 00:22:21;;;;;;;1.70;0.60;;;;;;;-128.00;-1.00;-1.00;100386;1283;1002739;-33
2023/10/16 00:24:47;;;;;;;2.10;0.70;;;;;;;-128.00;-1.00;-1.00;100479;1282;1002772;-33
2023/10/16 00:27:15;;;;;;;2.90;0.60;;;;;;;-128.00;-1.00;-1.00;100412;1282;1003263;-33
2023/10/16 00:29:44;;;;;;;0.80;0.40;;;;;;;-128.00;-1.00;-1.00;100431;1283;1039569;-31
2023/10/16 00:32:11;;;;;;;2.20;0.90;;;;;;;-128.00;-1.00;-1.00;100373;1281;1046421;-35
2023/10/16 00:34:37;;;;;;;4.90;0.90;;;;;;;-128.00;-1.00;-1.00;100379;1281;1004245;-32
2023/10/16 00:37:04;;;;;;;1.60;0.50;;;;;;;-128.00;-1.00;-1.00;100590;1282;1003281;-32
2023/10/16 00:39:32;;;;;;;2.50;0.60;;;;;;;-128.00;-1.00;-1.00;100419;1285;1002871;-32
2023/10/16 00:41:58;;;;;;;3.40;0.60;;;;;;;-128.00;-1.00;-1.00;100324;1282;1002344;-33
2023/10/16 00:44:29;;;;;;;4.40;0.80;;;;;;;-128.00;-1.00;-1.00;100433;1282;1003748;-31
2023/10/16 00:46:55;;;;;;;3.50;0.40;;;;;;;-128.00;-1.00;-1.00;100381;1282;1045674;-31
2023/10/16 00:49:20;;;;;;;1.80;0.60;;;;;;;-128.00;-1.00;-1.00;100361;1282;1003558;-33
2023/10/16 00:51:46;;;;;;;1.90;0.50;;;;;;;-128.00;-1.00;-1.00;100412;1282;1058492;-31
2023/10/16 00:54:18;;;;;;;3.30;0.60;;;;;;;-128.00;-1.00;-1.00;100335;1282;1003856;-33
2023/10/16 00:56:47;;;;;;;2.60;0.60;;;;;;;-128.00;-1.00;-1.00;100380;1282;1045637;-32
2023/10/16 00:59:16;;;;;;;1.70;0.80;;;;;;;-128.00;-1.00;-1.00;100368;1280;1062785;-35
2023/10/16 01:01:44;;;;;;;2.50;0.50;;;;;;;-128.00;-1.00;-1.00;100489;1282;1055123;-35
2023/10/16 01:04:10;;;;;;;5.60;0.60;;;;;;;-128.00;-1.00;-1.00;100368;1282;1004424;-31
2023/10/16 01:06:41;;;;;;;1.30;0.20;;;;;;;-128.00;-1.00;-1.00;100479;1283;1002933;-34
2023/10/16 01:09:08;;;;;;;3.20;0.40;;;;;;;-128.00;-1.00;-1.00;100353;1283;1038132;-32
2023/10/16 01:11:37;;;;;;;5.00;0.50;;;;;;;-128.00;-1.00;-1.00;100352;1282;1003026;-31
2023/10/16 01:14:03;;;;;;;1.90;0.50;;;;;;;-128.00;-1.00;-1.00;100346;1282;1060506;-32
2023/10/16 01:16:29;;;;;;;2.70;0.90;;;;;;;-128.00;-1.00;-1.00;100356;1282;1003051;-36
2023/10/16 01:18:54;;;;;;;2.40;0.40;;;;;;;-128.00;-1.00;-1.00;100429;1281;1003134;-33
2023/10/16 01:21:20;;;;;;;2.40;0.70;;;;;;;-128.00;-1.00;-1.00;100226;1282;1003077;-33
2023/10/16 01:23:45;;;;;;;4.50;0.50;;;;;;;-128.00;-1.00;-1.00;100456;1282;1002830;-33
2023/10/16 01:26:13;;;;;;;2.60;0.70;;;;;;;-128.00;-1.00;-1.00;100392;1282;1002449;-33
2023/10/16 01:28:39;;;;;;;2.20;0.60;;;;;;;-128.00;-1.00;-1.00;100378;1282;1058920;-34
2023/10/16 01:31:04;;;;;;;3.20;0.60;;;;;;;-128.00;-1.00;-1.00;100428;1283;1004160;-35
2023/10/16 01:33:30;;;;;;;1.50;0.40;;;;;;;-128.00;-1.00;-1.00;100354;1282;1003189;-35
2023/10/16 01:35:56;;;;;;;2.30;0.50;;;;;;;-128.00;-1.00;-1.00;100326;1283;1060329;-35
2023/10/16 01:38:24;;;;;;;1.30;0.40;;;;;;;-128.00;-1.00;-1.00;100548;1281;1004162;-35
2023/10/16 01:43:36;;;;;;;4.00;0.70;;;;;;;-128.00;-1.00;-1.00;100402;1281;1012820;-33
2023/10/16 01:46:02;;;;;;;2.60;1.20;;;;;;;-128.00;-1.00;-1.00;100403;1282;1002990;-32
2023/10/16 01:48:28;;;;;;;4.50;0.60;;;;;;;-128.00;-1.00;-1.00;100296;1281;1002931;-35
2023/10/16 01:50:54;;;;;;;1.70;0.60;;;;;;;-128.00;-1.00;-1.00;100490;1285;1004518;-34
2023/10/16 02:35:53;;;;;;;1.80;0.70;;;;;;;-128.00;-1.00;-1.00;100290;1280;1013212;-31
2023/10/16 02:38:27;;;;;;;1.10;0.50;;;;;;;-128.00;-1.00;-1.00;100578;1281;1002918;-33
2023/10/16 02:40:53;;;;;;;3.20;1.00;;;;;;;-128.00;-1.00;-1.00;100581;1285;1045829;-33
2023/10/16 02:43:23;;;;;;;3.20;0.90;;;;;;;-128.00;-1.00;-1.00;100416;1285;1003135;-32
2023/10/16 02:45:55;;;;;;;3.30;0.80;;;;;;;-128.00;-1.00;-1.00;100442;1283;1055654;-31
2023/10/16 02:48:21;;;;;;;1.90;0.70;;;;;;;-128.00;-1.00;-1.00;100489;1283;1058454;-34
2023/10/16 02:50:50;;;;;;;2.00;0.80;;;;;;;-128.00;-1.00;-1.00;100553;1283;1003465;-34
2023/10/16 02:53:17;;;;;;;2.20;0.60;;;;;;;-128.00;-1.00;-1.00;100518;1283;1004190;-32
2023/10/16 02:55:44;;;;;;;4.50;1.00;;;;;;;-128.00;-1.00;-1.00;100525;1283;1003598;-32
2023/10/16 02:58:11;;;;;;;4.60;1.10;;;;;;;-128.00;-1.00;-1.00;100474;1283;1004843;-33
2023/10/16 03:00:49;;;;;;;3.90;0.70;;;;;;;-128.00;-1.00;-1.00;100596;1283;1004165;-32
2023/10/16 03:03:15;;;;;;;2.10;0.80;;;;;;;-128.00;-1.00;-1.00;100365;1282;1058301;-30
2023/10/16 03:05:40;;;;;;;1.30;0.80;;;;;;;-128.00;-1.00;-1.00;100421;1285;1003823;-35
2023/10/16 03:08:08;;;;;;;2.80;0.80;;;;;;;-128.00;-1.00;-1.00;100291;1283;1002431;-30
2023/10/16 03:10:36;;;;;;;2.40;0.80;;;;;;;-128.00;-1.00;-1.00;100401;1283;1059593;-32
2023/10/16 03:13:05;;;;;;;3.60;0.70;;;;;;;-128.00;-1.00;-1.00;100539;1283;1055815;-31
2023/10/16 03:15:38;;;;;;;3.80;0.70;;;;;;;-128.00;-1.00;-1.00;100558;1285;1059033;-31
2023/10/16 03:18:05;;;;;;;3.10;0.80;;;;;;;-128.00;-1.00;-1.00;100372;1283;1012100;-34
2023/10/16 03:20:36;;;;;;;5.50;1.00;;;;;;;-128.00;-1.00;-1.00;100579;1283;1004105;-34
2023/10/16 03:23:07;;;;;;;1.70;0.40;;;;;;;-128.00;-1.00;-1.00;100573;1283;1046090;-34
2023/10/16 03:28:14;;;;;;;2.20;0.80;;;;;;;-128.00;-1.00;-1.00;100437;1284;1055844;-33
2023/10/16 03:30:42;;;;;;;5.00;0.50;;;;;;;-128.00;-1.00;-1.00;100475;1284;1002738;-33
2023/10/16 03:33:07;;;;;;;2.30;0.90;;;;;;;-128.00;-1.00;-1.00;100437;1285;1038657;-33
2023/10/16 03:35:34;;;;;;;4.00;0.90;;;;;;;-128.00;-1.00;-1.00;100541;1283;1002967;-33
2023/10/16 03:38:01;;;;;;;3.90;0.80;;;;;;;-128.00;-1.00;-1.00;100428;1283;1056093;-31
2023/10/16 03:40:30;;;;;;;5.90;1.10;;;;;;;-128.00;-1.00;-1.00;100412;1283;1003160;-34
2023/10/16 03:42:55;;;;;;;2.10;0.80;;;;;;;-128.00;-1.00;-1.00;100438;1283;1012969;-31
2023/10/16 03:45:21;;;;;;;4.00;1.00;;;;;;;-128.00;-1.00;-1.00;100420;1285;1003028;-31
2023/10/16 03:47:51;;;;;;;3.70;0.70;;;;;;;-128.00;-1.00;-1.00;100550;1283;1002240;-32
2023/10/16 03:50:23;;;;;;;3.70;1.00;;;;;;;-128.00;-1.00;-1.00;100505;1283;1055341;-31
2023/10/16 03:52:50;;;;;;;2.10;0.70;;;;;;;-128.00;-1.00;-1.00;100527;1283;1058815;-32
2023/10/16 03:57:57;;;;;;;2.30;0.80;;;;;;;-128.00;-1.00;-1.00;100459;1282;1039696;-34
2023/10/16 04:00:33;;;;;;;1.30;0.60;;;;;;;-128.00;-1.00;-1.00;100265;1283;1004088;-31
2023/10/16 04:02:59;;;;;;;;;;;;;;;-128.00;-1.00;-1.00;100543;1283;1059368;-31
2023/10/16 04:05:39;;;;;;;4.00;0.80;;;;;;;-128.00;-1.00;-1.00;100430;1281;1004459;-31
2023/10/16 04:08:05;;;;;;;3.40;1.30;;;;;;;-128.00;-1.00;-1.00;100399;1283;1058881;-36
2023/10/16 04:10:30;;;;;;;6.10;1.20;;;;;;;-128.00;-1.00;-1.00;100458;1285;1003185;-32
2023/10/16 04:12:57;;;;;;;2.60;0.90;;;;;;;-128.00;-1.00;-1.00;100543;1283;1003515;-35
2023/10/16 04:18:04;;;;;;;4.90;0.90;;;;;;;-128.00;-1.00;-1.00;100493;1283;1054994;-33
2023/10/16 04:23:21;;;;;;;3.50;0.80;;;;;;;-128.00;-1.00;-1.00;100552;1283;1012275;-32
2023/10/16 04:26:28;;;;;;;3.30;0.90;;;;;;;-128.00;-1.00;-1.00;100432;1283;1038271;-32
2023/10/16 04:28:39;;;;;;;3.70;0.90;;;;;;;-128.00;-1.00;-1.00;100511;1283;1048717;-32
2023/10/16 04:31:43;;;;;;;4.20;0.90;;;;;;;-128.00;-1.00;-1.00;100298;1283;1058855;-35
2023/10/16 04:34:13;;;;;;;6.10;1.60;;;;;;;-128.00;-1.00;-1.00;100461;1285;1058369;-35
2023/10/16 04:44:49;;;;;;;6.00;0.90;;;;;;;-128.00;-1.00;-1.00;100399;1283;1045660;-33
2023/10/16 04:47:17;;;;;;;2.90;0.60;;;;;;;-128.00;-1.00;-1.00;100461;1283;1061404;-33
2023/10/16 04:49:59;;;;;;;1.60;0.60;;;;;;;-128.00;-1.00;-1.00;100464;1283;1055838;-31
2023/10/16 04:55:03;;;;;;;5.30;1.30;;;;;;;-128.00;-1.00;-1.00;100441;1281;1013388;-33
2023/10/16 05:00:27;;;;;;;9.90;1.00;;;;;;;-128.00;-1.00;-1.00;100463;1283;1059065;-33
2023/10/16 05:03:21;;;;;;;4.40;1.10;;;;;;;-128.00;-1.00;-1.00;100446;1281;1059049;-33
2023/10/16 05:10:51;;;;;;;1.70;0.70;;;;;;;-128.00;-1.00;-1.00;100600;1283;1038874;-35
2023/10/16 05:13:23;;;;;;;2.50;1.00;;;;;;;-128.00;-1.00;-1.00;100463;1283;1004043;-33
2023/10/16 05:21:19;;;;;;;3.30;1.10;;;;;;;-128.00;-1.00;-1.00;100354;1283;1059010;-35
2023/10/16 06:16:18;;;;;;;14.60;4.70;;;;;;;-128.00;-1.00;-1.00;100490;1283;1046134;-33
2023/10/16 06:18:44;;;;;;;4.60;1.40;;;;;;;-128.00;-1.00;-1.00;100501;1282;1059643;-33
2023/10/16 06:21:10;;;;;;;4.00;1.90;;;;;;;-128.00;-1.00;-1.00;100455;1283;1003900;-32
2023/10/16 06:23:42;;;;;;;9.60;4.60;;;;;;;-128.00;-1.00;-1.00;100323;1283;1003456;-32
2023/10/16 06:26:08;;;;;;;8.40;1.40;;;;;;;-128.00;-1.00;-1.00;100514;1286;1013054;-37
2023/10/16 06:28:35;;;;;;;3.50;1.40;;;;;;;-128.00;-1.00;-1.00;100504;1285;1003537;-33
2023/10/16 06:31:00;;;;;;;;;;;;;;;-128.00;-1.00;-1.00;100451;1283;1003196;-32
2023/10/16 06:33:27;;;;;;;3.20;1.40;;;;;;;-128.00;-1.00;-1.00;100464;1285;1003021;-34
2023/10/16 06:35:54;;;;;;;4.30;1.20;;;;;;;-128.00;-1.00;-1.00;100439;1283;1059355;-32
2023/10/16 06:38:21;;;;;;;;;;;;;;;-128.00;-1.00;-1.00;100384;1283;1002882;-31
2023/10/16 06:40:47;;;;;;;2.90;1.30;;;;;;;-128.00;-1.00;-1.00;100520;1286;1003125;-32
2023/10/16 06:43:16;;;;;;;10.60;5.00;;;;;;;-128.00;-1.00;-1.00;100373;1283;1003298;-34
2023/10/16 06:45:53;;;;;;;3.50;1.20;;;;;;;-128.00;-1.00;-1.00;100464;1283;1055320;-34
2023/10/16 06:48:19;;;;;;;6.20;2.80;;;;;;;-128.00;-1.00;-1.00;100381;1283;1060275;-33
2023/10/16 06:53:23;;;;;;;4.30;1.50;;;;;;;-128.00;-1.00;-1.00;100431;1284;1039102;-33
2023/10/16 06:55:52;;;;;;;6.90;1.20;;;;;;;-128.00;-1.00;-1.00;100403;1284;1004132;-31
2023/10/16 06:58:20;;;;;;;5.00;1.30;;;;;;;-128.00;-1.00;-1.00;100501;1283;1060050;-31
2023/10/16 07:00:47;;;;;;;2.10;1.30;;;;;;;-128.00;-1.00;-1.00;100632;1284;1002716;-31
2023/10/16 07:03:13;;;;;;;2.00;1.10;;;;;;;-128.00;-1.00;-1.00;100430;1285;1002689;-33
2023/10/16 07:05:44;;;;;;;4.40;1.10;;;;;;;-128.00;-1.00;-1.00;100439;1283;1003773;-32
2023/10/16 07:08:16;;;;;;;3.00;0.90;;;;;;;-128.00;-1.00;-1.00;100459;1285;1037955;-32
2023/10/16 07:10:50;;;;;;;3.30;1.00;;;;;;;-128.00;-1.00;-1.00;100533;1286;1046929;-35
2023/10/16 07:13:26;;;;;;;3.10;1.40;;;;;;;-128.00;-1.00;-1.00;100419;1282;1060707;-32
2023/10/16 07:15:53;;;;;;;5.60;1.30;;;;;;;-128.00;-1.00;-1.00;100563;1283;1055812;-32
2023/10/16 07:18:24;;;;;;;4.40;1.40;;;;;;;-128.00;-1.00;-1.00;100531;1282;1003650;-32
2023/10/16 07:23:34;;;;;;;5.00;1.40;;;;;;;-128.00;-1.00;-1.00;100415;1283;1039192;-32
2023/10/16 07:26:00;;;;;;;4.70;1.10;;;;;;;-128.00;-1.00;-1.00;100524;1285;1046148;-35
2023/10/16 07:28:26;;;;;;;;;;;;;;;-128.00;-1.00;-1.00;100487;1286;1004535;-34
2023/10/16 07:30:52;;;;;;;4.00;0.80;;;;;;;-128.00;-1.00;-1.00;100499;1286;1002888;-32
2023/10/16 07:33:20;;;;;;;5.00;1.00;;;;;;;-128.00;-1.00;-1.00;100403;1285;1002948;-34
2023/10/16 07:35:49;;;;;;;5.90;0.90;;;;;;;-128.00;-1.00;-1.00;100440;1282;1002883;-33
2023/10/16 07:38:20;;;;;;;3.10;1.40;;;;;;;-128.00;-1.00;-1.00;100489;1282;1039238;-36
2023/10/16 07:40:54;;;;;;;3.60;1.10;;;;;;;-128.00;-1.00;-1.00;100358;1282;1046890;-33
2023/10/16 07:43:26;;;;;;;1.60;0.80;;;;;;;-128.00;-1.00;-1.00;100437;1283;1060506;-33
2023/10/16 07:46:16;;;;;;;8.40;1.10;;;;;;;-128.00;-1.00;-1.00;100453;1282;1055466;-32
2023/10/16 07:48:51;;;;;;;1.60;0.80;;;;;;;-128.00;-1.00;-1.00;100431;1285;1061787;-36
2023/10/16 07:51:17;;;;;;;2.20;1.50;;;;;;;-128.00;-1.00;-1.00;100354;1283;1013238;-31
2023/10/16 07:53:42;;;;;;;;;;;;;;;-128.00;-1.00;-1.00;100488;1283;1003093;-32
2023/10/16 07:58:49;;;;;;;7.40;1.80;;;;;;;-128.00;-1.00;-1.00;100433;1285;1056760;-33
2023/10/16 08:03:41;;;;;;;;;;;;;;;-128.00;-1.00;-1.00;100522;1285;1003163;-32
2023/10/16 08:06:12;;;;;;;3.10;1.20;;;;;;;-128.00;-1.00;-1.00;100481;1285;1004404;-36
2023/10/16 08:08:39;;;;;;;2.00;1.00;;;;;;;-128.00;-1.00;-1.00;100621;1285;1060532;-33
2023/10/16 08:11:12;;;;;;;;;;;;;;;-128.00;-1.00;-1.00;100420;1282;1004171;-35
2023/10/16 08:13:46;;;;;;;3.10;2.00;;;;;;;-128.00;-1.00;-1.00;100176;1286;1058638;-33
2023/10/16 08:16:17;;;;;;;6.30;2.80;;;;;;;-128.00;-1.00;-1.00;100572;1283;1013340;-35
2023/10/16 08:18:47;;;;;;;4.30;1.70;;;;;;;-128.00;-1.00;-1.00;100482;1286;1037835;-35
2023/10/16 08:21:23;;;;;;;9.70;3.90;;;;;;;-128.00;-1.00;-1.00;100452;1285;1046627;-35
2023/10/16 08:23:49;;;;;;;;;;;;;;;-128.00;-1.00;-1.00;100582;1281;1060175;-33
2023/10/16 08:26:14;;;;;;;5.90;1.30;;;;;;;-128.00;-1.00;-1.00;100343;1285;1004144;-33
2023/10/16 08:28:47;;;;;;;5.20;1.20;;;;;;;-128.00;-1.00;-1.00;100423;1286;1003865;-33
2023/10/16 08:33:51;;;;;;;4.20;1.30;;;;;;;-128.00;-1.00;-1.00;100397;1285;1046500;-34
2023/10/16 08:36:18;;;;;;;3.60;1.20;;;;;;;-128.00;-1.00;-1.00;100540;1285;1003813;-35
2023/10/16 08:38:52;;;;;;;6.60;1.50;;;;;;;-128.00;-1.00;-1.00;100475;1283;1003495;-35
2023/10/16 08:41:30;;;;;;;3.10;1.20;;;;;;;-128.00;-1.00;-1.00;100397;1285;1059258;-33
2023/10/16 08:44:03;;;;;;;6.40;1.60;;;;;;;-128.00;-1.00;-1.00;100430;1282;1015227;-32
2023/10/16 08:46:44;;;;;;;7.50;1.00;;;;;;;-128.00;-1.00;-1.00;100253;1283;1039390;-34
2023/10/16 08:49:10;;;;;;;3.80;1.00;;;;;;;-128.00;-1.00;-1.00;100463;1286;1046758;-32
2023/10/16 08:51:36;;;;;;;5.40;1.20;;;;;;;-128.00;-1.00;-1.00;100481;1283;1003873;-34
2023/10/16 08:54:26;;;;;;;6.30;1.20;;;;;;;-128.00;-1.00;-1.00;100421;1286;1004235;-32
2023/10/16 08:56:47;;;;;;;4.90;1.20;;;;;;;-128.00;-1.00;-1.00;100462;1283;1013992;-34
2023/10/16 08:59:12;;;;;;;3.50;1.40;;;;;;;-128.00;-1.00;-1.00;100569;1286;1003392;-34
2023/10/16 09:01:37;;;;;;;3.30;1.00;;;;;;;-128.00;-1.00;-1.00;100490;1283;1002957;-32
2023/10/16 09:04:08;;;;;;;5.40;1.30;;;;;;;-128.00;-1.00;-1.00;100504;1283;1003099;-33
2023/10/16 09:06:36;;;;;;;6.90;1.40;;;;;;;-128.00;-1.00;-1.00;100483;1283;1012486;-32
2023/10/16 09:09:11;;;;;;;3.70;1.20;;;;;;;-128.00;-1.00;-1.00;100468;1283;1002593;-34
2023/10/16 09:11:39;;;;;;;3.40;1.20;;;;;;;-128.00;-1.00;-1.00;100447;1283;1046479;-36
2023/10/16 09:14:07;;;;;;;3.20;1.30;;;;;;;-128.00;-1.00;-1.00;100450;1282;1004017;-35
2023/10/16 09:16:34;;;;;;;3.30;1.00;;;;;;;-128.00;-1.00;-1.00;100475;1283;1002742;-33
2023/10/16 09:19:02;;;;;;;3.30;1.20;;;;;;;-128.00;-1.00;-1.00;100384;1285;1003397;-35
2023/10/16 09:21:30;;;;;;;5.30;1.10;;;;;;;-128.00;-1.00;-1.00;100431;1283;1003861;-35
2023/10/16 09:24:00;;;;;;;2.90;0.90;;;;;;;-128.00;-1.00;-1.00;100463;1286;1039067;-35
2023/10/16 09:26:28;;;;;;;6.00;1.00;;;;;;;-128.00;-1.00;-1.00;100498;1283;1045953;-34
2023/10/16 09:31:34;;;;;;;4.60;1.10;;;;;;;-128.00;-1.00;-1.00;100471;1283;1054837;-35
2023/10/16 09:34:00;;;;;;;6.30;1.20;;;;;;;-128.00;-1.00;-1.00;100244;1283;1003217;-33
2023/10/16 09:55:22;;;;;;;6.30;1.20;;;;;;;-128.00;-1.00;-1.00;2;601707837;601707837;-34
2023/10/16 10:02:54;;;;;;;6.30;1.20;;;;;;;-128.00;-1.00;-1.00;2;444153570;444153570;-33
2023/10/16 10:20:46;;;;;;;6.30;1.20;;;;;;;-128.00;-1.00;-1.00;4;7504870;579191341;-33
2023/10/16 10:30:01;;;;;;;6.30;1.20;;;;;;;-128.00;-1.00;-1.00;2;543185092;543185092;-33
2023/10/16 10:47:54;;;;;;;6.30;1.20;;;;;;;-128.00;-1.00;-1.00;2;444154825;444154825;-34
2023/10/16 10:54:06;;;;;;;6.30;1.20;;;;;;;-128.00;-1.00;-1.00;2;363125940;363125940;-33
2023/10/16 11:04:58;;;;;;;6.30;1.20;;;;;;;-128.00;-1.00;-1.00;4;7504240;548756449;-34
2023/10/16 11:14:10;;;;;;;6.30;1.20;;;;;;;-128.00;-1.00;-1.00;2;543184413;543184413;-33
2023/10/16 11:24:17;;;;;;;6.30;1.20;;;;;;;-128.00;-1.00;-1.00;2;597198902;597198902;-34
2023/10/16 11:31:52;;;;;;;6.30;1.20;;;;;;;-128.00;-1.00;-1.00;2;444154142;444154142;-34
2023/10/16 11:40:42;;;;;;;6.10;0.60;;;;;;;-128.00;-1.00;-1.00;58453;1283;59488151;-35
2023/10/16 11:43:11;;;;;;;2.50;0.50;;;;;;;-128.00;-1.00;-1.00;100501;1283;1003399;-32
2023/10/16 11:45:36;;;;;;;5.50;1.40;;;;;;;-128.00;-1.00;-1.00;100498;1283;1048260;-33
2023/10/16 11:48:36;;;;;;;4.10;1.50;;;;;;;-128.00;-1.00;-1.00;100577;1283;1003063;-35
2023/10/16 11:51:08;;;;;;;5.50;1.80;;;;;;;-128.00;-1.00;-1.00;100427;1285;1061204;-32
2023/10/16 11:53:36;;;;;;;2.70;1.20;;;;;;;-128.00;-1.00;-1.00;100411;1283;1013778;-34
2023/10/16 11:56:02;;;;;;;3.70;0.70;;;;;;;-128.00;-1.00;-1.00;100257;1285;1003014;-33
2023/10/16 11:58:31;;;;;;;6.00;1.50;;;;;;;-128.00;-1.00;-1.00;100417;1285;1004580;-33
2023/10/16 12:01:07;;;;;;;6.20;1.40;;;;;;;-128.00;-1.00;-1.00;100378;1283;1003057;-33
2023/10/16 12:03:33;;;;;;;8.10;3.60;;;;;;;-128.00;-1.00;-1.00;100555;1283;1057650;-35
2023/10/16 12:05:59;;;;;;;;;;;;;;;-128.00;-1.00;-1.00;100447;1283;1003748;-31
2023/10/16 12:08:24;;;;;;;47.30;12.50;;;;;;;-128.00;-1.00;-1.00;100448;1282;1003472;-31
2023/10/16 12:10:50;;;;;;;13.60;2.50;;;;;;;-128.00;-1.00;-1.00;100419;1283;1003631;-32
2023/10/16 12:13:16;;;;;;;11.20;1.70;;;;;;;-128.00;-1.00;-1.00;100414;1283;1003666;-32
2023/10/16 12:15:43;;;;;;;13.00;2.80;;;;;;;-128.00;-1.00;-1.00;100473;1283;1059181;-34
2023/10/16 12:18:12;;;;;;;4.30;1.00;;;;;;;-128.00;-1.00;-1.00;100488;1283;1003191;-34
2023/10/16 12:20:38;;;;;;;3.90;0.80;;;;;;;-128.00;-1.00;-1.00;100391;1286;1039344;-33
2023/10/16 12:23:04;;;;;;;4.90;2.10;;;;;;;-128.00;-1.00;-1.00;100347;1284;1003381;-34
2023/10/16 12:25:29;;;;;;;;;;;;;;;-128.00;-1.00;-1.00;100445;1282;1003231;-34
2023/10/16 12:27:55;;;;;;;6.10;0.80;;;;;;;-128.00;-1.00;-1.00;100360;1285;1003039;-32
2023/10/16 12:30:20;;;;;;;1.40;0.60;;;;;;;-128.00;-1.00;-1.00;100405;1283;1003481;-35
2023/10/16 12:32:45;;;;;;;7.60;1.20;;;;;;;-128.00;-1.00;-1.00;100368;1283;1003234;-32
2023/10/16 12:35:18;;;;;;;5.60;0.70;;;;;;;-128.00;-1.00;-1.00;100500;1285;1003125;-31
2023/10/16 12:37:44;;;;;;;5.80;0.90;;;;;;;-128.00;-1.00;-1.00;100482;1282;1056440;-34
2023/10/16 12:42:47;;;;;;;;;;;;;;;-128.00;-1.00;-1.00;100564;1283;1012767;-32
2023/10/16 12:45:12;;;;;;;1.50;0.60;;;;;;;-128.00;-1.00;-1.00;100437;1285;1002876;-34
2023/10/16 12:47:37;;;;;;;3.10;0.70;;;;;;;-128.00;-1.00;-1.00;100481;1281;1003340;-36
2023/10/16 12:50:04;;;;;;;5.70;1.30;;;;;;;-128.00;-1.00;-1.00;100530;1283;1004606;-34
2023/10/16 12:52:31;;;;;;;3.90;0.70;;;;;;;-128.00;-1.00;-1.00;100428;1283;1012334;-34
2023/10/16 12:55:00;;;;;;;2.20;0.80;;;;;;;-128.00;-1.00;-1.00;100392;1283;1004956;-34
2023/10/16 12:57:27;;;;;;;5.50;1.30;;;;;;;-128.00;-1.00;-1.00;100438;1282;1003139;-37
2023/10/16 12:59:56;;;;;;;7.50;1.40;;;;;;;-128.00;-1.00;-1.00;100349;1283;1003387;-35
2023/10/16 13:02:28;;;;;;;5.90;1.30;;;;;;;-128.00;-1.00;-1.00;100432;1283;1003599;-36
2023/10/16 13:04:55;;;;;;;5.50;1.40;;;;;;;-128.00;-1.00;-1.00;100387;1283;1059791;-34
2023/10/16 13:07:24;;;;;;;2.60;0.70;;;;;;;-128.00;-1.00;-1.00;100332;1283;1002632;-33
2023/10/16 13:09:52;;;;;;;5.20;0.80;;;;;;;-128.00;-1.00;-1.00;100388;1284;1039087;-35
2023/10/16 13:12:21;;;;;;;3.20;1.10;;;;;;;-128.00;-1.00;-1.00;100374;1283;1048042;-34
2023/10/16 13:14:49;;;;;;;5.80;2.00;;;;;;;-128.00;-1.00;-1.00;100459;1283;1004661;-34
2023/10/16 13:17:15;;;;;;;4.40;0.80;;;;;;;-128.00;-1.00;-1.00;100390;1283;1056393;-33
2023/10/16 13:19:40;;;;;;;4.70;0.80;;;;;;;-128.00;-1.00;-1.00;100267;1283;1003055;-34
2023/10/16 13:22:10;;;;;;;4.30;0.80;;;;;;;-128.00;-1.00;-1.00;100418;1283;1002618;-34
2023/10/16 13:24:37;;;;;;;4.60;1.60;;;;;;;-128.00;-1.00;-1.00;100631;1283;1050327;-36
2023/10/16 13:27:02;;;;;;;8.80;1.70;;;;;;;-128.00;-1.00;-1.00;100480;1285;1004790;-35
2023/10/16 13:29:30;;;;;;;1.80;0.50;;;;;;;-128.00;-1.00;-1.00;100423;1283;1005718;-33
2023/10/16 13:32:00;;;;;;;2.10;0.80;;;;;;;-128.00;-1.00;-1.00;100411;1283;1013432;-36
2023/10/16 13:34:26;;;;;;;4.80;1.10;;;;;;;-128.00;-1.00;-1.00;100406;1283;1039360;-34
2023/10/16 13:39:32;;;;;;;3.00;1.30;;;;;;;-128.00;-1.00;-1.00;100452;1283;1061493;-32
2023/10/16 13:41:58;;;;;;;6.00;1.60;;;;;;;-128.00;-1.00;-1.00;100523;1282;1056721;-34
2023/10/16 13:44:24;;;;;;;4.50;1.00;;;;;;;-128.00;-1.00;-1.00;100450;1283;1002979;-35
2023/10/16 13:46:50;;;;;;;;;;;;;;;-128.00;-1.00;-1.00;100509;1283;1004253;-34
2023/10/16 13:49:17;;;;;;;4.80;2.30;;;;;;;-128.00;-1.00;-1.00;100607;1286;1004113;-35
2023/10/16 14:30:54;;;;;;;5.90;1.90;;;;;;;;;;104467;1276;600080;-32
2023/10/16 14:33:20;;;;;;;4.80;1.80;;;;;;;;;;104374;1275;90206;-35
2023/10/16 14:35:49;;;;;;;6.30;1.90;;;;;;;;;;104428;1278;60206;-37
2023/10/16 14:38:16;;;;;;;1.10;0.50;;;;;;;;;;104537;1279;60198;-32
2023/10/16 14:40:42;;;;;;;5.40;1.20;;;;;;;;;;104538;1281;60245;-33
2023/10/16 14:43:08;;;;;;;8.60;1.70;;;;;;;;;;104517;1279;60102;-35
2023/10/16 14:45:35;;;;;;;;;;;;;;;;;;104533;1278;60081;-37
2023/10/16 14:48:03;;;;;;;3.10;0.90;;;;;;;;;;104581;1279;60159;-33
2023/10/16 14:50:32;;;;;;;5.20;1.00;;;;;;;;;;104460;1279;60153;-31
2023/10/16 14:52:58;;;;;;;7.10;2.50;;;;;;;;;;104424;1281;60522;-34
2023/10/16 14:55:24;;;;;;;5.10;1.40;;;;;;;;;;104431;1277;61270;-31
2023/10/16 14:57:49;;;;;;;6.40;2.10;;;;;;;;;;104405;1278;61989;-35
2023/10/16 15:00:21;;;;;;;6.60;1.90;;;;;;;;;;104420;1277;62658;-35
2023/10/16 15:02:47;;;;;;;12.60;2.90;;;;;;;;;;104551;1281;61989;-35
2023/10/16 15:05:12;;;;;;;18.20;3.40;;;;;;;;;;104444;1281;61946;-33
2023/10/16 15:07:38;;;;;;;8.40;1.50;;;;;;;;;;104262;1278;61930;-36
2023/10/16 15:10:06;;;;;;;21.30;6.90;;;;;;;;;;104343;1279;61952;-36
2023/10/16 15:12:31;;;;;;;13.00;3.50;;;;;;;;;;104354;1279;61852;-31
2023/10/16 15:14:57;;;;;;;34.80;9.90;;;;;;;;;;104510;1276;62035;-31
2023/10/16 15:17:22;;;;;;;20.10;5.70;;;;;;;;;;104432;1278;62048;-39
2023/10/16 15:19:48;;;;;;;7.10;2.10;;;;;;;;;;104419;1279;61993;-32
2023/10/16 15:22:13;;;;;;;9.40;3.40;;;;;;;;;;104395;1277;62002;-36
2023/10/16 15:24:39;;;;;;;4.30;1.30;;;;;;;;;;104478;1277;62006;-35
2023/10/16 15:27:05;;;;;;;3.70;1.80;;;;;;;;;;104355;1281;60754;-33
2023/10/16 15:29:30;;;;;;;15.60;6.70;;;;;;;;;;104394;1281;61529;-33
2023/10/16 15:31:56;;;;;;;16.70;5.30;;;;;;;;;;104418;1278;60830;-34
2023/10/16 15:34:22;;;;;;;18.30;8.50;;;;;;;;;;104417;1277;60879;-35
2023/10/16 15:36:49;;;;;;;4.20;2.50;;;;;;;;;;104429;1278;60806;-32
2023/10/16 15:39:22;;;;;;;5.70;3.50;;;;;;;;;;104476;1279;60834;-32
2023/10/16 15:41:47;;;;;;;9.00;4.50;;;;;;;;;;104434;1279;61458;-32
2023/10/16 15:44:13;;;;;;;12.50;5.20;;;;;;;;;;104370;1281;60846;-34
2023/10/16 15:46:38;;;;;;;24.60;7.20;;;;;;;;;;104404;1277;62401;-32
2023/10/16 15:49:04;;;;;;;26.50;6.10;;;;;;;;;;104381;1279;62075;-33
2023/10/16 15:51:32;;;;;;;35.60;8.50;;;;;;;;;;104406;1278;61891;-32
2023/10/16 15:53:57;;;;;;;20.20;4.90;;;;;;;;;;104407;1278;60889;-32
2023/10/16 15:56:23;;;;;;;17.30;4.50;;;;;;;;;;104304;1281;61945;-37
2023/10/16 15:58:48;;;;;;;8.20;2.70;;;;;;;;;;104349;1278;62617;-34
2023/10/16 16:01:13;;;;;;;11.20;3.20;;;;;;;;;;104382;1278;62000;-32
2023/10/16 16:03:39;;;;;;;14.40;4.60;;;;;;;;;;104312;1281;62019;-33
2023/10/16 16:06:11;;;;;;;13.30;5.80;;;;;;;;;;104414;1277;61944;-33
2023/10/16 16:08:40;;;;;;;13.40;5.60;;;;;;;;;;104442;1280;61938;-35
2023/10/16 16:11:07;;;;;;;10.60;4.90;;;;;;;;;;104387;1281;61969;-33
2023/10/16 16:13:33;;;;;;;5.60;3.50;;;;;;;;;;104486;1281;61984;-37
2023/10/16 16:16:00;;;;;;;6.60;2.60;;;;;;;;;;104443;1281;60808;-34
2023/10/16 16:18:27;;;;;;;5.20;1.80;;;;;;;;;;104394;1279;62309;-35
2023/10/16 16:20:52;;;;;;;4.40;1.10;;;;;;;;;;104423;1278;61910;-34
2023/10/16 16:23:20;;;;;;;2.90;0.90;;;;;;;;;;104335;1281;61834;-32
2023/10/16 16:25:49;;;;;;;2.10;0.90;;;;;;;;;;104452;1279;61238;-36
2023/10/16 16:28:15;;;;;;;4.70;0.80;;;;;;;;;;104556;1281;60960;-34
2023/10/16 16:30:40;;;;;;;3.30;1.20;;;;;;;;;;104477;1276;60809;-31
2023/10/16 16:33:06;;;;;;;2.70;1.00;;;;;;;;;;104446;1279;61677;-34
2023/10/16 16:35:31;;;;;;;1.90;1.00;;;;;;;;;;104396;1279;61289;-32
2023/10/16 16:37:57;;;;;;;4.40;1.40;;;;;;;;;;104466;1277;60847;-35
2023/10/16 16:40:23;;;;;;;2.70;0.90;;;;;;;;;;104454;1277;60879;-34
2023/10/16 16:42:49;;;;;;;2.30;0.80;;;;;;;;;;104426;1281;61163;-34
2023/10/16 16:45:16;;;;;;;8.20;1.60;;;;;;;;;;104470;1280;60814;-32
2023/10/16 16:47:43;;;;;;;7.00;1.90;;;;;;;;;;104323;1279;60899;-32
2023/10/16 16:50:13;;;;;;;6.40;2.10;;;;;;;;;;104500;1281;60751;-34